Pendaries, New Mexico
Current Conditions -  °F | °C
As of 10:53 AM on Monday 26 Jan 2015 (Local Time) from KLVS Reporting Station
Clear Clear  
Wind Chill: 47°   Ceiling: Unl
Heat Index: 49°   Visibility: 10mi
Dew Point: 25°   Wind: 5mph
Humidity: 39%   Direction: 50°NE
Pressure: 30.39"   Gusts: NA
Location:  35.8214°N, 105.333°W
Report Text: KLVS 261753Z AUTO 05004KT 10SM CLR 09/M04 A3039 RMK AO2 SLP258 T00941039 10094 21028 53008
Loading
Personal Weather Stations






























Interactive Weather Map New forecast layout! Learn more

10-Day Weather Forecast

Advertisements
Track Severe Weather on mobile